createdAt,value
2023-03-24T00:02:05.107Z,6.15
2023-03-24T00:04:33.592Z,5.85
2023-03-24T00:07:03.363Z,6.30
2023-03-24T00:09:32.395Z,5.90
2023-03-24T00:12:00.666Z,6.68
2023-03-24T00:14:30.660Z,6.75
2023-03-24T00:17:00.310Z,6.28
2023-03-24T00:19:28.763Z,6.35
2023-03-24T00:21:56.996Z,5.80
2023-03-24T00:24:25.398Z,6.15
2023-03-24T00:26:57.580Z,5.97
2023-03-24T00:29:26.460Z,6.00
2023-03-24T00:31:55.385Z,5.20
2023-03-24T00:34:25.590Z,5.75
2023-03-24T00:36:53.851Z,5.88
2023-03-24T00:39:22.442Z,7.50
2023-03-24T00:41:50.665Z,7.13
2023-03-24T00:44:19.085Z,8.30
2023-03-24T00:46:55.403Z,8.90
2023-03-24T00:49:42.122Z,9.15
2023-03-24T00:52:11.178Z,8.70
2023-03-24T00:54:39.940Z,8.60
2023-03-24T00:57:08.820Z,8.35
2023-03-24T00:59:42.416Z,8.43
2023-03-24T01:02:12.041Z,9.00
2023-03-24T01:04:47.275Z,7.97
2023-03-24T01:07:18.218Z,9.38
2023-03-24T01:09:57.367Z,8.80
2023-03-24T01:12:25.743Z,9.07
2023-03-24T01:14:54.049Z,8.50
2023-03-24T01:17:25.558Z,9.25
2023-03-24T01:19:55.638Z,8.70
2023-03-24T01:22:27.801Z,9.25
2023-03-24T01:24:56.300Z,9.18
2023-03-24T01:27:24.725Z,8.13
2023-03-24T01:29:52.939Z,9.50
2023-03-24T01:32:21.199Z,8.70
2023-03-24T01:34:49.455Z,9.35
2023-03-24T01:37:19.121Z,8.95
2023-03-24T01:39:47.645Z,8.75
2023-03-24T01:42:20.485Z,9.75
2023-03-24T01:44:50.430Z,9.30
2023-03-24T01:47:19.298Z,8.90
2023-03-24T01:49:53.393Z,9.20
2023-03-24T01:52:27.784Z,9.40
2023-03-24T01:54:59.425Z,10.05
2023-03-24T01:57:32.046Z,9.23
2023-03-24T02:00:08.506Z,9.63
2023-03-24T02:02:37.990Z,9.18
2023-03-24T02:05:10.488Z,11.00
2023-03-24T02:07:45.662Z,9.77
2023-03-24T02:10:16.802Z,9.87
2023-03-24T02:12:46.470Z,9.57
2023-03-24T02:15:16.947Z,9.20
2023-03-24T02:18:01.451Z,8.77
2023-03-24T02:21:19.626Z,8.77
2023-03-24T02:24:26.366Z,9.80
2023-03-24T02:27:03.481Z,8.63
2023-03-24T02:30:12.520Z,8.33
2023-03-24T02:33:16.609Z,8.97
2023-03-24T02:36:24.182Z,8.63
2023-03-24T02:39:28.647Z,8.93
2023-03-24T02:42:06.955Z,8.43
2023-03-24T02:44:43.085Z,9.30
2023-03-24T02:47:17.875Z,9.17
2023-03-24T02:49:53.260Z,9.00
2023-03-24T02:52:27.536Z,10.10
2023-03-24T02:55:03.224Z,10.17
2023-03-24T02:57:36.190Z,9.77
2023-03-24T03:00:12.648Z,9.37
2023-03-24T03:02:47.031Z,9.30
2023-03-24T03:05:20.992Z,9.70
2023-03-24T03:07:51.548Z,8.50
2023-03-24T03:10:25.300Z,9.37
2023-03-24T03:12:57.731Z,9.20
2023-03-24T03:15:29.164Z,9.50
2023-03-24T03:18:03.550Z,9.03
2023-03-24T03:20:38.986Z,8.97
2023-03-24T03:23:10.798Z,8.73
2023-03-24T03:25:46.533Z,10.20
2023-03-24T03:28:20.715Z,9.23
2023-03-24T03:30:54.227Z,9.57
2023-03-24T03:33:26.261Z,8.97
2023-03-24T03:35:59.711Z,8.97
2023-03-24T03:38:37.134Z,8.53
2023-03-24T03:41:07.442Z,8.47
2023-03-24T03:43:37.067Z,8.77
2023-03-24T03:46:07.386Z,8.63
2023-03-24T03:48:36.085Z,8.90
2023-03-24T03:51:13.253Z,8.97
2023-03-24T03:53:49.066Z,9.40
2023-03-24T03:56:20.656Z,9.50
2023-03-24T03:58:50.082Z,10.07
2023-03-24T04:01:21.090Z,9.67
2023-03-24T04:04:26.211Z,10.03
2023-03-24T04:07:09.545Z,11.37
2023-03-24T04:09:51.861Z,11.27
2023-03-24T04:12:45.014Z,10.07
2023-03-24T04:15:33.956Z,9.60
2023-03-24T04:18:27.808Z,9.53
2023-03-24T04:21:12.985Z,10.07
2023-03-24T04:23:50.023Z,9.80
2023-03-24T04:26:26.641Z,10.27
2023-03-24T04:29:09.008Z,10.50
2023-03-24T04:31:43.196Z,15.53
2023-03-24T04:34:20.810Z,14.37
2023-03-24T04:36:54.404Z,13.93
2023-03-24T04:39:28.220Z,13.30
2023-03-24T04:41:58.607Z,14.07
2023-03-24T04:44:29.072Z,14.23
2023-03-24T04:46:59.058Z,13.40
2023-03-24T04:49:27.244Z,12.77
2023-03-24T04:51:55.780Z,11.77
2023-03-24T04:54:25.153Z,10.03
2023-03-24T04:56:56.239Z,12.27
2023-03-24T04:59:24.723Z,12.03
2023-03-24T05:01:54.282Z,13.10
2023-03-24T05:04:24.815Z,10.47
2023-03-24T05:06:53.320Z,10.43
2023-03-24T05:09:23.911Z,9.13
2023-03-24T05:11:52.901Z,8.40
2023-03-24T05:14:21.353Z,8.20
2023-03-24T05:16:49.583Z,8.60
2023-03-24T05:19:19.244Z,9.53
2023-03-24T05:21:47.899Z,10.53
2023-03-24T05:24:16.105Z,11.13
2023-03-24T05:26:44.255Z,11.17
2023-03-24T05:29:12.436Z,14.87
2023-03-24T05:31:40.763Z,14.93
2023-03-24T05:34:08.895Z,13.43
2023-03-24T05:36:38.452Z,11.40
2023-03-24T05:39:06.626Z,10.37
2023-03-24T05:41:34.883Z,9.80
2023-03-24T05:44:03.125Z,11.50
2023-03-24T05:46:31.356Z,11.67
2023-03-24T05:48:59.537Z,11.83
2023-03-24T05:51:27.684Z,13.33
2023-03-24T05:53:57.222Z,14.33
2023-03-24T05:56:25.921Z,13.50
2023-03-24T05:58:54.355Z,11.27
2023-03-24T06:01:22.498Z,10.00
2023-03-24T06:03:50.811Z,10.57
2023-03-24T06:06:18.983Z,10.20
2023-03-24T06:08:47.160Z,10.33
2023-03-24T06:11:16.891Z,10.13
2023-03-24T06:13:45.054Z,9.83
2023-03-24T06:16:13.415Z,9.73
2023-03-24T06:18:42.788Z,10.50
2023-03-24T06:21:11.090Z,10.00
2023-03-24T06:23:39.414Z,10.07
2023-03-24T06:26:11.638Z,9.80
2023-03-24T06:28:42.261Z,9.93
2023-03-24T06:31:15.208Z,9.83
2023-03-24T06:33:43.617Z,9.57
2023-03-24T06:36:13.564Z,9.93
2023-03-24T06:38:42.868Z,10.50
2023-03-24T06:41:11.284Z,10.07
2023-03-24T06:43:40.924Z,10.73
2023-03-24T06:46:10.187Z,9.65
2023-03-24T06:48:38.625Z,10.52
2023-03-24T06:51:07.578Z,10.63
2023-03-24T06:53:35.762Z,9.88
2023-03-24T06:56:03.924Z,10.15
2023-03-24T06:58:33.913Z,9.43
2023-03-24T07:01:03.576Z,10.32
2023-03-24T07:03:31.815Z,9.85
2023-03-24T07:06:00.886Z,9.73
2023-03-24T07:08:37.101Z,9.50
2023-03-24T07:11:08.771Z,9.88
2023-03-24T07:13:37.614Z,10.02
2023-03-24T07:16:08.329Z,10.13
2023-03-24T07:18:36.601Z,10.35
2023-03-24T07:21:04.915Z,9.75
2023-03-24T07:23:33.202Z,9.60
2023-03-24T07:26:01.497Z,9.63
2023-03-24T07:28:29.664Z,9.32
2023-03-24T07:30:57.937Z,9.65
2023-03-24T07:33:27.542Z,9.57
2023-03-24T07:35:57.387Z,9.48
2023-03-24T07:38:25.960Z,9.45
2023-03-24T07:40:54.254Z,9.55
2023-03-24T07:43:22.951Z,8.95
2023-03-24T07:45:51.170Z,8.63
2023-03-24T07:48:19.732Z,9.50
2023-03-24T07:50:49.589Z,8.48
2023-03-24T07:53:20.035Z,8.40
2023-03-24T07:55:49.241Z,8.88
2023-03-24T07:58:17.986Z,8.13
2023-03-24T08:00:46.280Z,8.05
2023-03-24T08:03:15.720Z,9.15
2023-03-24T08:05:45.248Z,8.13
2023-03-24T08:08:15.282Z,8.82
2023-03-24T08:10:45.913Z,8.43
2023-03-24T08:13:14.263Z,7.82
2023-03-24T08:15:42.427Z,7.28
2023-03-24T08:18:10.719Z,8.48
2023-03-24T08:20:38.914Z,7.95
2023-03-24T08:23:08.500Z,7.43
2023-03-24T08:25:38.650Z,8.25
2023-03-24T08:28:07.770Z,7.82
2023-03-24T08:30:39.639Z,7.80
2023-03-24T08:33:07.901Z,7.97
2023-03-24T08:35:38.950Z,7.88
2023-03-24T08:38:07.993Z,8.20
2023-03-24T08:40:38.852Z,6.88
2023-03-24T08:43:09.395Z,6.13
2023-03-24T08:45:38.226Z,6.90
2023-03-24T08:48:08.854Z,7.22
2023-03-24T08:50:40.022Z,6.78
2023-03-24T08:53:08.691Z,6.95
2023-03-24T08:55:41.777Z,6.95
2023-03-24T08:58:10.788Z,5.60
2023-03-24T09:00:38.937Z,6.00
2023-03-24T09:03:07.361Z,5.78
2023-03-24T09:05:54.552Z,6.22
2023-03-24T09:08:33.020Z,6.57
2023-03-24T09:11:02.577Z,6.00
2023-03-24T09:13:30.777Z,6.30
2023-03-24T09:16:01.527Z,6.30
2023-03-24T09:18:30.217Z,6.25
2023-03-24T09:20:58.329Z,6.28
2023-03-24T09:23:29.161Z,5.90
2023-03-24T09:25:57.296Z,5.95
2023-03-24T09:28:27.794Z,5.82
2023-03-24T09:30:59.060Z,5.72
2023-03-24T09:33:27.474Z,5.07
2023-03-24T09:35:58.475Z,5.07
2023-03-24T09:38:28.330Z,5.90
2023-03-24T09:41:00.960Z,5.32
2023-03-24T09:43:38.990Z,4.95
2023-03-24T09:46:12.535Z,5.32
2023-03-24T09:48:45.417Z,5.95
2023-03-24T09:51:21.649Z,5.38
2023-03-24T09:53:55.713Z,5.72
2023-03-24T09:56:26.341Z,6.35
2023-03-24T09:59:04.227Z,5.95
2023-03-24T10:01:33.095Z,5.80
2023-03-24T10:04:02.685Z,6.05
2023-03-24T10:06:38.625Z,6.78
2023-03-24T10:09:22.765Z,6.28
2023-03-24T10:11:58.866Z,5.90
2023-03-24T10:14:42.489Z,6.22
2023-03-24T10:17:20.273Z,6.13
2023-03-24T10:19:59.596Z,5.50
2023-03-24T10:22:33.516Z,6.13
2023-03-24T10:25:08.249Z,6.20
2023-03-24T10:27:42.368Z,6.45
2023-03-24T10:30:18.884Z,6.20
2023-03-24T10:32:47.898Z,5.93
2023-03-24T10:35:20.751Z,6.20
2023-03-24T10:37:50.056Z,5.88
2023-03-24T10:40:20.669Z,6.30
2023-03-24T10:43:07.074Z,5.25
2023-03-24T10:45:42.058Z,5.30
2023-03-24T10:48:10.361Z,5.47
2023-03-24T10:50:43.938Z,5.53
2023-03-24T10:53:19.735Z,5.70
2023-03-24T10:55:49.113Z,5.50
2023-03-24T10:58:26.754Z,6.82
2023-03-24T11:00:56.749Z,6.03
2023-03-24T11:03:29.791Z,5.40
2023-03-24T11:06:03.179Z,5.78
2023-03-24T11:08:36.900Z,5.72
2023-03-24T11:11:16.530Z,5.10
2023-03-24T11:13:57.723Z,5.32
2023-03-24T11:16:30.997Z,5.85
2023-03-24T11:19:01.662Z,6.40
2023-03-24T11:21:31.441Z,6.78
2023-03-24T11:24:01.237Z,6.18
2023-03-24T11:26:35.012Z,5.82
2023-03-24T11:29:07.549Z,6.22
2023-03-24T11:31:40.090Z,5.88
2023-03-24T11:34:11.537Z,6.55
2023-03-24T11:36:47.302Z,6.20
2023-03-24T11:39:20.044Z,5.95
2023-03-24T11:42:02.195Z,5.95
2023-03-24T11:44:44.329Z,5.93
2023-03-24T11:47:18.247Z,6.43
2023-03-24T11:49:51.510Z,6.40
2023-03-24T11:52:24.448Z,6.60
2023-03-24T11:54:52.779Z,6.35
2023-03-24T11:57:30.213Z,6.78
2023-03-24T12:00:04.805Z,6.50
2023-03-24T12:02:49.741Z,6.15
2023-03-24T12:05:31.653Z,6.85
2023-03-24T12:08:17.825Z,6.82
2023-03-24T12:11:06.318Z,6.82
2023-03-24T12:13:37.774Z,5.82
2023-03-24T12:16:22.773Z,6.45
2023-03-24T12:19:25.338Z,6.50
2023-03-24T12:22:04.090Z,6.20
2023-03-24T12:24:47.042Z,6.30
2023-03-24T12:27:25.714Z,5.18
2023-03-24T12:30:01.792Z,5.43
2023-03-24T12:32:43.223Z,5.40
2023-03-24T12:35:43.194Z,4.97
2023-03-24T12:38:43.697Z,5.10
2023-03-24T12:41:37.412Z,4.68
2023-03-24T12:44:35.796Z,4.60
2023-03-24T12:47:15.856Z,3.95
2023-03-24T12:49:59.882Z,4.55
2023-03-24T12:52:51.109Z,4.25
2023-03-24T12:55:32.308Z,4.32
2023-03-24T12:58:06.023Z,4.00
2023-03-24T13:00:38.328Z,3.85
2023-03-24T13:03:12.291Z,3.80
2023-03-24T13:05:44.980Z,3.35
2023-03-24T13:08:18.385Z,3.25
2023-03-24T13:10:48.643Z,4.22
2023-03-24T13:13:21.751Z,3.22
2023-03-24T13:15:53.179Z,3.63
2023-03-24T13:18:30.976Z,3.50
2023-03-24T13:21:04.208Z,3.72
2023-03-24T13:23:44.877Z,3.15
2023-03-24T13:26:23.388Z,3.10
2023-03-24T13:29:01.699Z,2.80
2023-03-24T13:31:36.450Z,2.80
2023-03-24T13:34:06.569Z,2.85
2023-03-24T13:36:46.112Z,2.42
2023-03-24T13:39:18.538Z,2.42
2023-03-24T13:41:51.867Z,2.15
2023-03-24T13:44:22.894Z,2.58
2023-03-24T13:47:11.088Z,2.20
2023-03-24T13:49:40.971Z,2.55
2023-03-24T13:52:24.803Z,2.38
2023-03-24T13:54:59.413Z,2.60
2023-03-24T13:57:28.075Z,2.70
2023-03-24T14:00:08.775Z,2.28
2023-03-24T14:02:49.991Z,2.22
2023-03-24T14:05:57.514Z,2.50
2023-03-24T14:08:43.726Z,2.47
2023-03-24T14:11:49.823Z,2.10
2023-03-24T14:14:25.072Z,2.30
2023-03-24T14:17:04.350Z,2.95
2023-03-24T14:19:39.183Z,2.50
2023-03-24T14:22:22.945Z,2.38
2023-03-24T14:25:00.527Z,2.47
2023-03-24T14:27:40.986Z,2.50
2023-03-24T14:30:21.349Z,2.38
2023-03-24T14:32:52.193Z,2.33
2023-03-24T14:35:26.170Z,2.28
2023-03-24T14:37:57.229Z,2.50
2023-03-24T14:40:32.202Z,2.08
2023-03-24T14:43:18.177Z,2.58
2023-03-24T14:46:05.031Z,2.42
2023-03-24T14:48:56.779Z,2.80
2023-03-24T14:51:39.358Z,2.42
2023-03-24T14:54:14.663Z,2.70
2023-03-24T14:56:44.751Z,2.50
2023-03-24T14:59:27.092Z,2.60
2023-03-24T15:02:05.171Z,2.50
2023-03-24T15:04:39.329Z,2.30
2023-03-24T15:07:07.932Z,2.60
2023-03-24T15:09:39.031Z,2.00
2023-03-24T15:12:07.333Z,2.05
2023-03-24T15:14:38.398Z,2.63
2023-03-24T15:17:17.406Z,2.50
2023-03-24T15:19:46.845Z,2.40
2023-03-24T15:22:15.455Z,2.30
2023-03-24T15:24:44.847Z,2.15
2023-03-24T15:27:24.581Z,2.80
2023-03-24T15:29:59.145Z,2.72
2023-03-24T15:32:31.767Z,2.63
2023-03-24T15:35:05.610Z,2.88
2023-03-24T15:37:35.992Z,2.80
2023-03-24T15:42:43.029Z,3.20
2023-03-24T15:45:22.233Z,3.10
2023-03-24T15:47:54.200Z,3.40
2023-03-24T15:50:34.190Z,3.08
2023-03-24T15:53:04.553Z,5.30
2023-03-24T15:55:35.882Z,4.22
2023-03-24T15:58:23.013Z,5.15
2023-03-24T16:00:55.901Z,4.80
2023-03-24T16:03:26.802Z,5.25
2023-03-24T16:05:56.846Z,5.05
2023-03-24T16:08:50.396Z,5.35
2023-03-24T16:11:18.860Z,6.43
2023-03-24T16:13:47.402Z,6.95
2023-03-24T16:16:29.198Z,7.55
2023-03-24T16:18:59.597Z,6.78
2023-03-24T16:21:30.027Z,7.38
2023-03-24T16:23:59.241Z,7.72
2023-03-24T16:26:29.282Z,7.95
2023-03-24T16:29:04.176Z,8.80
2023-03-24T16:31:35.575Z,9.13
2023-03-24T16:34:03.785Z,10.57
2023-03-24T16:36:31.990Z,13.80
2023-03-24T16:39:01.669Z,12.27
2023-03-24T16:41:30.181Z,12.65
2023-03-24T16:43:58.312Z,12.60
2023-03-24T16:46:34.785Z,13.77
2023-03-24T16:49:05.396Z,13.30
2023-03-24T16:51:33.548Z,12.02
2023-03-24T16:54:01.971Z,11.40
2023-03-24T16:56:30.503Z,11.20
2023-03-24T16:58:59.639Z,11.80
2023-03-24T17:01:33.753Z,14.77
2023-03-24T17:04:09.523Z,14.55
2023-03-24T17:06:40.395Z,21.60
2023-03-24T17:09:08.728Z,18.58
2023-03-24T17:11:39.395Z,19.13
2023-03-24T17:14:12.332Z,17.67
2023-03-24T17:16:43.444Z,17.08
2023-03-24T17:19:14.143Z,12.95
2023-03-24T17:21:45.991Z,12.23
2023-03-24T17:24:14.686Z,11.45
2023-03-24T17:26:43.992Z,11.55
2023-03-24T17:29:13.494Z,12.18
2023-03-24T17:31:43.154Z,11.40
2023-03-24T17:36:46.407Z,13.63
2023-03-24T17:39:20.775Z,15.75
2023-03-24T17:41:50.525Z,14.27
2023-03-24T17:44:18.797Z,15.43
2023-03-24T17:46:47.178Z,12.00
2023-03-24T17:49:16.766Z,12.02
2023-03-24T17:51:45.132Z,14.50
2023-03-24T17:54:13.761Z,13.77
2023-03-24T17:56:41.995Z,15.10
2023-03-24T17:59:10.238Z,16.75
2023-03-24T18:01:39.380Z,16.92
2023-03-24T18:04:08.240Z,17.77
2023-03-24T18:06:38.702Z,15.75
2023-03-24T18:09:07.438Z,16.23
2023-03-24T18:11:35.912Z,13.85
2023-03-24T18:14:04.279Z,15.50
2023-03-24T18:16:35.916Z,14.55
2023-03-24T18:19:04.543Z,15.55
2023-03-24T18:21:33.673Z,13.38
2023-03-24T18:24:05.548Z,14.27
2023-03-24T18:26:33.922Z,14.48
2023-03-24T18:29:02.455Z,14.30
2023-03-24T18:31:32.333Z,14.60
2023-03-24T18:34:01.538Z,14.77
2023-03-24T18:36:31.108Z,13.80
2023-03-24T18:39:00.760Z,13.95
2023-03-24T18:41:30.972Z,13.73
2023-03-24T18:44:00.625Z,12.95
2023-03-24T18:46:30.684Z,12.43
2023-03-24T18:48:59.629Z,11.80
2023-03-24T18:51:28.524Z,12.60
2023-03-24T18:53:56.776Z,11.45
2023-03-24T18:56:25.554Z,12.10
2023-03-24T18:58:55.113Z,11.57
2023-03-24T19:01:26.179Z,11.30
2023-03-24T19:03:54.871Z,11.10
2023-03-24T19:06:26.184Z,13.50
2023-03-24T19:08:55.158Z,12.50
2023-03-24T19:11:23.461Z,12.43
2023-03-24T19:13:52.092Z,12.48
2023-03-24T19:16:22.020Z,11.60
2023-03-24T19:18:50.966Z,13.43
2023-03-24T19:21:19.503Z,11.98
2023-03-24T19:23:49.959Z,12.35
2023-03-24T19:26:21.775Z,12.93
2023-03-24T19:28:50.461Z,13.60
2023-03-24T19:31:24.231Z,13.20
2023-03-24T19:33:53.724Z,13.70
2023-03-24T19:36:22.096Z,12.88
2023-03-24T19:38:50.942Z,13.25
2023-03-24T19:41:19.428Z,12.45
2023-03-24T19:43:47.597Z,12.05
2023-03-24T19:46:16.571Z,12.35
2023-03-24T19:48:48.733Z,16.92
2023-03-24T19:51:16.900Z,18.38
2023-03-24T19:53:45.133Z,22.67
2023-03-24T19:56:13.617Z,19.50
2023-03-24T19:58:41.812Z,15.45
2023-03-24T20:01:10.358Z,14.00
2023-03-24T20:03:38.568Z,13.55
2023-03-24T20:06:10.060Z,14.82
2023-03-24T20:08:39.306Z,16.25
2023-03-24T20:11:12.226Z,15.68
2023-03-24T20:13:40.779Z,16.13
2023-03-24T20:16:09.117Z,16.50
2023-03-24T20:18:38.993Z,16.25
2023-03-24T20:21:09.820Z,15.90
2023-03-24T20:23:38.057Z,15.18
2023-03-24T20:26:06.707Z,16.45
2023-03-24T20:28:37.444Z,16.25
2023-03-24T20:31:06.421Z,16.92
2023-03-24T20:33:34.866Z,14.40
2023-03-24T20:36:03.567Z,9.20
2023-03-24T20:38:33.623Z,6.88
2023-03-24T20:41:03.380Z,7.68
2023-03-24T20:43:35.578Z,6.75
2023-03-24T20:46:04.907Z,4.22
2023-03-24T20:48:33.126Z,6.50
2023-03-24T20:51:02.003Z,5.57
2023-03-24T20:53:32.778Z,4.72
2023-03-24T20:56:06.646Z,5.30
2023-03-24T20:58:35.210Z,3.47
2023-03-24T21:01:07.997Z,4.03
2023-03-24T21:03:36.638Z,3.70
2023-03-24T21:06:06.037Z,5.07
2023-03-24T21:08:34.224Z,17.25
2023-03-24T21:11:04.025Z,8.68
2023-03-24T21:13:37.364Z,5.25
2023-03-24T21:16:08.322Z,5.18
2023-03-24T21:18:38.036Z,5.65
2023-03-24T21:21:07.189Z,4.25
2023-03-24T21:23:39.311Z,3.50
2023-03-24T21:26:11.368Z,2.97
2023-03-24T21:28:39.823Z,2.75
2023-03-24T21:31:09.817Z,3.50
2023-03-24T21:33:40.744Z,2.88
2023-03-24T21:36:10.913Z,2.97
2023-03-24T21:38:40.115Z,3.35
2023-03-24T21:41:10.601Z,2.72
2023-03-24T21:43:40.539Z,2.90
2023-03-24T21:46:20.445Z,2.35
2023-03-24T21:48:51.464Z,2.95
2023-03-24T21:51:21.413Z,3.17
2023-03-24T21:53:49.590Z,3.00
2023-03-24T21:56:20.546Z,3.03
2023-03-24T21:58:48.810Z,3.58
2023-03-24T22:01:17.333Z,3.33
2023-03-24T22:03:46.521Z,3.38
2023-03-24T22:06:15.486Z,3.85
2023-03-24T22:08:44.664Z,3.80
2023-03-24T22:11:15.397Z,4.15
2023-03-24T22:13:46.918Z,4.28
2023-03-24T22:16:15.742Z,4.28
2023-03-24T22:18:43.881Z,4.72
2023-03-24T22:21:12.562Z,4.70
2023-03-24T22:23:42.705Z,4.63
2023-03-24T22:26:13.085Z,4.90
2023-03-24T22:28:42.471Z,4.35
2023-03-24T22:31:13.733Z,5.13
2023-03-24T22:33:42.092Z,4.85
2023-03-24T22:36:11.436Z,4.47
2023-03-24T22:38:39.864Z,4.70
2023-03-24T22:41:11.470Z,4.70
2023-03-24T22:43:41.582Z,5.53
2023-03-24T22:46:11.625Z,5.70
2023-03-24T22:48:40.083Z,4.80
2023-03-24T22:51:09.459Z,5.07
2023-03-24T22:53:37.671Z,5.57
2023-03-24T22:56:09.024Z,5.80
2023-03-24T22:58:37.509Z,5.47
2023-03-24T23:01:06.181Z,5.73
2023-03-24T23:03:36.306Z,4.70
2023-03-24T23:06:04.823Z,4.90
2023-03-24T23:08:34.605Z,4.23
2023-03-24T23:11:02.949Z,4.57
2023-03-24T23:13:35.469Z,5.00
2023-03-24T23:16:03.873Z,4.80
2023-03-24T23:18:32.683Z,5.30
2023-03-24T23:21:08.038Z,4.70
2023-03-24T23:23:37.292Z,4.70
2023-03-24T23:26:06.226Z,4.30
2023-03-24T23:28:35.422Z,4.63
2023-03-24T23:31:03.696Z,4.73
2023-03-24T23:33:31.954Z,4.80
2023-03-24T23:36:01.781Z,5.00
2023-03-24T23:38:31.605Z,5.37
2023-03-24T23:40:59.790Z,4.97
2023-03-24T23:43:28.120Z,5.17
2023-03-24T23:45:56.803Z,5.93
2023-03-24T23:48:26.055Z,5.97
2023-03-24T23:50:57.523Z,5.65
2023-03-24T23:53:25.878Z,6.13
2023-03-24T23:55:57.386Z,5.43
2023-03-24T23:58:25.739Z,6.33
